X  Luk Metar data     EKBI Billund Airport
Temperatur
18°C Temperatur
13°C Duggpunkt
73% Fugtighed



Vind
4 M/S
10 MPT
16 KM/T
9 KNOB



100°
Øst
Nuværende forhold

Delvis skyet Delvis skyet
Tryk 1008.92 (hPa) - 29.79 (inHg)
Sigt 6.2 (mil) - 10 (km)
Lufthavn
Lufthavnskode EKBI

Lokation: Billund Airport
Afstand: 20 (km)

Metar:
EKBI 051820Z AUTO 10009KT 9999 FEW100/// 18/13 Q1009

Tid: 05-08-2021 20:20 CEST